Time;durP1;ratioP1;P1;durP2;ratioP2;P2;SDS_P1;SDS_P2;PMS_P1;PMS_P2;Temp;Humidity;BMP_temperature;BMP_pressure;BME280_temperature;BME280_humidity;BME280_pressure;Samples;Min_cycle;Max_cycle;Signal;HPM_P1;HPM_P2
2021/10/04 00:01:03;;;;;;;7.57;2.17;;;;;;;-149.78;100.00;50361.91;4838108;29;20029;-74
2021/10/04 00:03:29;;;;;;;5.00;1.45;;;;;;;-149.78;100.00;50369.75;4829614;29;20026;-74
2021/10/04 00:05:54;;;;;;;8.18;1.80;;;;;;;-149.78;100.00;50389.31;4831554;29;20042;-75
2021/10/04 00:08:20;;;;;;;7.55;1.50;;;;;;;-149.78;100.00;50387.34;4818923;29;20041;-76
2021/10/04 00:10:47;;;;;;;6.78;1.60;;;;;;;-149.78;100.00;50381.47;4836108;29;20034;-75
2021/10/04 00:13:13;;;;;;;6.45;1.42;;;;;;;-149.78;100.00;50385.38;4816952;29;20407;-75
2021/10/04 00:15:38;;;;;;;6.75;1.55;;;;;;;-149.78;100.00;50369.75;4837587;29;20034;-75
2021/10/04 00:18:04;;;;;;;8.90;1.60;;;;;;;-149.78;100.00;50371.69;4836592;29;20049;-75
2021/10/04 00:20:29;;;;;;;7.00;1.52;;;;;;;-149.78;100.00;50393.22;4833381;29;20053;-75
2021/10/04 00:22:57;;;;;;;6.50;1.65;;;;;;;-149.78;100.00;50381.47;4834036;29;20062;-75
2021/10/04 00:25:23;;;;;;;11.10;1.23;;;;;;;-149.78;100.00;50361.91;4836576;29;20124;-75
2021/10/04 00:27:49;;;;;;;8.18;2.42;;;;;;;-149.78;100.00;50354.09;4828778;29;20050;-75
2021/10/04 00:30:16;;;;;;;9.88;2.72;;;;;;;-149.78;100.00;50391.25;4820423;29;20175;-75
2021/10/04 00:32:46;;;;;;;9.10;1.60;;;;;;;-149.78;100.00;50383.44;4833491;29;20034;-75
2021/10/04 00:35:17;;;;;;;8.02;1.77;;;;;;;-149.78;100.00;50381.47;4807469;29;20486;-75
2021/10/04 00:37:44;;;;;;;14.73;1.60;;;;;;;-149.78;100.00;50363.88;4834203;29;20025;-75
2021/10/04 00:40:12;;;;;;;8.52;1.30;;;;;;;-149.78;100.00;50365.84;4834357;29;20042;-74
2021/10/04 00:42:38;;;;;;;6.50;2.00;;;;;;;-149.78;100.00;50361.91;4833262;29;20030;-75
2021/10/04 00:45:06;;;;;;;9.45;1.90;;;;;;;-149.78;100.00;50397.13;4828810;29;20475;-75
2021/10/04 00:47:35;;;;;;;5.55;1.45;;;;;;;-149.78;100.00;50361.91;4831187;29;20534;-75
2021/10/04 00:50:04;;;;;;;8.50;2.03;;;;;;;-149.78;100.00;50369.75;4814335;29;20042;-75
2021/10/04 00:52:30;;;;;;;9.88;1.73;;;;;;;-149.78;100.00;50361.91;4834289;29;20042;-75
2021/10/04 00:54:56;;;;;;;11.00;1.88;;;;;;;-149.78;100.00;50369.75;4836811;29;20041;-75
2021/10/04 00:57:22;;;;;;;5.93;1.35;;;;;;;-149.78;100.00;50397.13;4814346;29;20049;-75
2021/10/04 00:59:47;;;;;;;9.55;1.83;;;;;;;-149.78;100.00;50397.13;4838254;29;20034;-75
2021/10/04 01:02:13;;;;;;;11.50;3.53;;;;;;;-149.78;100.00;50354.09;4837625;29;20042;-75
2021/10/04 01:04:39;;;;;;;10.75;2.00;;;;;;;-149.78;100.00;50361.91;4833227;29;20102;-75
2021/10/04 01:07:05;;;;;;;10.93;1.70;;;;;;;-149.78;100.00;50377.56;4825173;29;20034;-75
2021/10/04 01:09:33;;;;;;;11.05;1.67;;;;;;;-149.78;100.00;50369.75;4810419;29;20459;-75
2021/10/04 01:12:00;;;;;;;10.65;4.18;;;;;;;-149.78;100.00;50401.03;4838404;29;20042;-76
2021/10/04 01:14:25;;;;;;;11.98;1.98;;;;;;;-149.78;100.00;50385.38;4824305;29;20048;-75
2021/10/04 01:16:51;;;;;;;11.88;2.38;;;;;;;-149.78;100.00;50422.56;4834600;29;20038;-74
2021/10/04 01:19:18;;;;;;;10.20;2.10;;;;;;;-149.78;100.00;50361.91;4831328;29;20037;-76
2021/10/04 01:21:44;;;;;;;14.63;2.20;;;;;;;-149.78;100.00;50373.66;4837177;29;20045;-75
2021/10/04 01:24:11;;;;;;;12.15;3.80;;;;;;;-149.78;100.00;50369.75;4838438;29;20061;-75
2021/10/04 01:26:38;;;;;;;7.82;2.67;;;;;;;-149.78;100.00;50385.38;4836636;29;20037;-75
2021/10/04 01:29:04;;;;;;;18.00;3.10;;;;;;;-149.78;100.00;50404.94;4834455;29;20065;-75
2021/10/04 01:31:30;;;;;;;12.65;2.55;;;;;;;-149.78;100.00;50373.66;4830534;29;20079;-75
2021/10/04 01:33:57;;;;;;;11.13;3.03;;;;;;;-149.78;100.00;50383.44;4818192;29;20030;-75
2021/10/04 01:36:27;;;;;;;11.40;2.65;;;;;;;-149.78;100.00;50424.50;4834493;29;20121;-74
2021/10/04 01:38:54;;;;;;;12.07;2.95;;;;;;;-149.78;100.00;50369.75;4835696;29;20058;-75
2021/10/04 01:41:20;;;;;;;13.60;3.60;;;;;;;-149.78;100.00;50385.38;4831621;29;20041;-75
2021/10/04 01:43:50;;;;;;;12.10;2.83;;;;;;;-149.78;100.00;50389.31;4835503;29;20034;-75
2021/10/04 01:46:16;;;;;;;9.85;2.42;;;;;;;-149.78;100.00;50393.22;4822383;29;20048;-75
2021/10/04 01:48:42;;;;;;;7.80;2.42;;;;;;;-149.78;100.00;50420.59;4806681;29;20038;-76
2021/10/04 01:51:08;;;;;;;11.27;2.50;;;;;;;-149.78;100.00;50397.13;4835119;29;20042;-75
2021/10/04 01:53:34;;;;;;;11.02;2.80;;;;;;;-149.78;100.00;50393.22;4818814;29;20029;-75
2021/10/04 01:56:03;;;;;;;10.43;2.55;;;;;;;-149.78;100.00;50397.13;4795710;29;20117;-75
2021/10/04 01:58:30;;;;;;;7.43;2.58;;;;;;;-149.78;100.00;50424.50;4823297;29;20040;-75
2021/10/04 02:00:58;;;;;;;12.57;2.50;;;;;;;-149.78;100.00;50397.13;4811747;29;20086;-75
2021/10/04 02:03:24;;;;;;;13.23;2.45;;;;;;;-149.78;100.00;50365.84;4837073;29;20034;-76
2021/10/04 02:05:50;;;;;;;8.20;2.72;;;;;;;-149.78;100.00;50369.75;4837245;29;20030;-76
2021/10/04 02:08:15;;;;;;;17.00;2.88;;;;;;;-149.78;100.00;50426.47;4818270;29;20476;-75
2021/10/04 02:10:41;;;;;;;14.88;3.40;;;;;;;-149.78;100.00;50379.53;4835687;29;20030;-75
2021/10/04 02:13:09;;;;;;;8.45;2.38;;;;;;;-149.78;100.00;50401.03;4837239;29;20095;-75
2021/10/04 02:15:36;;;;;;;11.55;3.03;;;;;;;-149.78;100.00;50393.22;4834451;29;20030;-75
2021/10/04 02:18:03;;;;;;;14.02;2.67;;;;;;;-149.78;100.00;50379.53;4835717;29;20038;-75
2021/10/04 02:20:32;;;;;;;13.48;3.03;;;;;;;-149.78;100.00;50393.22;4818164;29;20467;-75
2021/10/04 02:23:05;;;;;;;13.60;3.13;;;;;;;-149.78;100.00;50397.13;4821255;29;20079;-75
2021/10/04 02:25:32;;;;;;;9.70;2.42;;;;;;;-149.78;100.00;50381.47;4818331;29;20398;-75
2021/10/04 02:27:58;;;;;;;9.57;2.88;;;;;;;-149.78;100.00;50401.03;4831142;29;20094;-75
2021/10/04 02:30:24;;;;;;;12.80;2.67;;;;;;;-149.78;100.00;50375.63;4813818;29;20046;-75
2021/10/04 02:32:50;;;;;;;12.00;3.30;;;;;;;-149.78;100.00;50412.78;4838761;29;20033;-76
2021/10/04 02:35:16;;;;;;;10.57;3.15;;;;;;;-149.78;100.00;50399.09;4832935;29;20034;-75
2021/10/04 02:37:42;;;;;;;15.20;3.25;;;;;;;-149.78;100.00;50385.38;4813583;29;20118;-75
2021/10/04 02:40:10;;;;;;;11.70;3.05;;;;;;;-149.78;100.00;50381.47;4832168;29;20570;-75
2021/10/04 02:42:36;;;;;;;14.68;2.97;;;;;;;-149.78;100.00;50373.66;4812661;29;20049;-75
2021/10/04 02:45:04;;;;;;;15.63;3.53;;;;;;;-149.78;100.00;50412.78;4815465;29;20480;-75
2021/10/04 02:47:29;;;;;;;10.45;2.78;;;;;;;-149.78;100.00;50399.09;4835514;29;20038;-75
2021/10/04 02:49:55;;;;;;;13.43;2.95;;;;;;;-149.78;100.00;50379.53;4835736;29;20562;-75
2021/10/04 02:52:21;;;;;;;12.98;2.78;;;;;;;-149.78;100.00;50385.38;4833915;29;20034;-75
2021/10/04 02:54:47;;;;;;;18.38;3.60;;;;;;;-149.78;100.00;50385.38;4799693;29;20050;-75
2021/10/04 02:57:13;;;;;;;9.55;2.65;;;;;;;-149.78;100.00;50410.81;4834346;29;20502;-76
2021/10/04 02:59:39;;;;;;;18.83;2.63;;;;;;;-149.78;100.00;50389.31;4834631;29;20463;-75
2021/10/04 03:02:04;;;;;;;15.35;2.58;;;;;;;-149.78;100.00;50365.84;4843090;29;20125;-75
2021/10/04 03:04:30;;;;;;;6.65;2.20;;;;;;;-149.78;100.00;50369.75;4824650;29;21446;-75
2021/10/04 03:06:56;;;;;;;10.80;2.30;;;;;;;-149.78;100.00;50391.25;4831278;29;20055;-75
2021/10/04 03:09:21;;;;;;;10.43;2.17;;;;;;;-149.78;100.00;50350.19;4833038;29;20042;-76
2021/10/04 03:11:47;;;;;;;8.25;2.97;;;;;;;-149.78;100.00;50369.75;4799544;29;20045;-75
2021/10/04 03:14:13;;;;;;;8.02;2.22;;;;;;;-149.78;100.00;50401.03;4828463;29;20034;-76
2021/10/04 03:16:39;;;;;;;21.23;3.33;;;;;;;-149.78;100.00;50424.50;4832619;29;20375;-76
2021/10/04 03:19:04;;;;;;;11.93;2.70;;;;;;;-149.78;100.00;50373.66;4832904;29;20030;-76
2021/10/04 03:21:30;;;;;;;11.35;2.60;;;;;;;-149.78;100.00;50381.47;4839200;29;20098;-74
2021/10/04 03:23:56;;;;;;;12.05;2.75;;;;;;;-149.78;100.00;50381.47;4806848;29;20374;-74
2021/10/04 03:26:22;;;;;;;13.50;3.35;;;;;;;-149.78;100.00;50401.03;4813803;29;20055;-74
2021/10/04 03:28:47;;;;;;;7.13;3.55;;;;;;;-149.78;100.00;50379.53;4810621;29;20046;-74
2021/10/04 03:31:13;;;;;;;17.83;3.83;;;;;;;-149.78;100.00;50434.28;4796711;29;20039;-74
2021/10/04 03:33:38;;;;;;;16.45;4.00;;;;;;;-149.78;100.00;50389.31;4831371;29;20436;-74
2021/10/04 03:36:04;;;;;;;19.15;4.50;;;;;;;-149.78;100.00;50389.31;4816654;29;20049;-74
2021/10/04 03:38:30;;;;;;;17.05;4.40;;;;;;;-149.78;100.00;50385.38;4829512;29;20034;-74
2021/10/04 03:40:56;;;;;;;13.38;4.50;;;;;;;-149.78;100.00;50389.31;4814673;29;20049;-74
2021/10/04 03:43:22;;;;;;;14.63;6.90;;;;;;;-149.78;100.00;50404.94;4823548;29;20045;-74
2021/10/04 03:45:48;;;;;;;16.08;5.15;;;;;;;-149.78;100.00;50401.03;4829721;29;20038;-74
2021/10/04 03:48:13;;;;;;;14.38;4.95;;;;;;;-149.78;100.00;50369.75;4824820;29;20336;-74
2021/10/04 03:50:39;;;;;;;12.18;5.60;;;;;;;-149.78;100.00;50412.78;4830157;29;20113;-74
2021/10/04 03:53:05;;;;;;;14.18;4.72;;;;;;;-149.78;100.00;50397.13;4834490;29;20038;-74
2021/10/04 03:55:31;;;;;;;16.58;4.95;;;;;;;-149.78;100.00;50352.16;4811819;29;20045;-74
2021/10/04 03:57:57;;;;;;;15.23;5.65;;;;;;;-149.78;100.00;50391.25;4831053;29;20027;-74
2021/10/04 04:00:26;;;;;;;20.15;6.20;;;;;;;-149.78;100.00;50375.63;4830348;29;20122;-74
2021/10/04 04:02:51;;;;;;;13.48;6.00;;;;;;;-149.78;100.00;50403.00;4814205;29;20136;-74
2021/10/04 04:05:18;;;;;;;12.80;5.00;;;;;;;-149.78;100.00;50397.13;4830960;29;20116;-74
2021/10/04 04:07:44;;;;;;;17.10;5.68;;;;;;;-149.78;100.00;50387.34;4814167;29;20038;-74
2021/10/04 04:10:11;;;;;;;21.75;5.30;;;;;;;-149.78;100.00;50379.53;4815746;29;20038;-74
2021/10/04 04:12:38;;;;;;;11.00;4.60;;;;;;;-149.78;100.00;50397.13;4808829;29;20427;-73
2021/10/04 04:15:15;;;;;;;12.57;4.90;;;;;;;-149.78;100.00;50393.22;4832248;29;20062;-74
2021/10/04 04:17:41;;;;;;;14.55;5.30;;;;;;;-149.78;100.00;50412.78;4828252;29;20031;-74
2021/10/04 04:20:09;;;;;;;9.35;4.18;;;;;;;-149.78;100.00;50412.78;4814647;29;20045;-74
2021/10/04 04:22:35;;;;;;;12.00;4.30;;;;;;;-149.78;100.00;50393.22;4834915;29;20046;-74
2021/10/04 04:25:02;;;;;;;8.45;3.58;;;;;;;-149.78;100.00;50375.63;4813578;29;20034;-74
2021/10/04 04:27:28;;;;;;;9.40;3.63;;;;;;;-149.78;100.00;50412.78;4797116;29;20046;-73
2021/10/04 04:29:57;;;;;;;8.30;2.90;;;;;;;-149.78;100.00;50363.88;4834029;29;20039;-74
2021/10/04 04:32:23;;;;;;;15.25;3.40;;;;;;;-149.78;100.00;50395.16;4834883;29;20068;-74
2021/10/04 04:34:49;;;;;;;14.18;3.05;;;;;;;-149.78;100.00;50416.69;4836216;29;20090;-73
2021/10/04 04:37:14;;;;;;;10.48;2.53;;;;;;;-149.78;100.00;50401.03;4813034;29;20050;-73
2021/10/04 04:39:40;;;;;;;10.75;2.80;;;;;;;-149.78;100.00;50412.78;4834739;29;20030;-74
2021/10/04 04:42:07;;;;;;;5.63;2.45;;;;;;;-149.78;100.00;50404.94;4816405;29;20033;-74
2021/10/04 04:44:33;;;;;;;10.30;2.22;;;;;;;-149.78;100.00;50424.50;4831963;29;20031;-74
2021/10/04 04:46:59;;;;;;;11.65;2.55;;;;;;;-149.78;100.00;50401.03;4833393;29;20094;-74
2021/10/04 04:49:26;;;;;;;5.72;1.88;;;;;;;-149.78;100.00;50389.31;4832019;29;20047;-74
2021/10/04 04:51:57;;;;;;;7.40;1.80;;;;;;;-149.78;100.00;50408.84;4817176;29;20054;-74
2021/10/04 04:54:23;;;;;;;9.93;2.13;;;;;;;-149.78;100.00;50408.84;4820924;29;20034;-74
2021/10/04 04:56:50;;;;;;;7.05;2.03;;;;;;;-149.78;100.00;50412.78;4823959;29;20034;-73
2021/10/04 04:59:16;;;;;;;5.05;2.47;;;;;;;-149.78;100.00;50422.56;4828484;29;20383;-74
2021/10/04 05:01:43;;;;;;;8.18;2.42;;;;;;;-149.78;100.00;50371.69;4832739;29;20039;-74
2021/10/04 05:04:12;;;;;;;11.38;2.90;;;;;;;-149.78;100.00;50412.78;4800791;29;20467;-73
2021/10/04 05:06:38;;;;;;;6.13;2.20;;;;;;;-149.78;100.00;50436.25;4825394;29;20038;-73
2021/10/04 05:09:04;;;;;;;6.25;2.40;;;;;;;-149.78;100.00;50416.69;4834232;29;20034;-74
2021/10/04 05:11:29;;;;;;;7.30;2.63;;;;;;;-149.78;100.00;50420.59;4834451;29;20042;-73
2021/10/04 05:13:55;;;;;;;11.82;2.92;;;;;;;-149.78;100.00;50389.31;4835185;29;20447;-74
2021/10/04 05:16:20;;;;;;;6.30;2.80;;;;;;;-149.78;100.00;50383.44;4829076;29;20047;-73
2021/10/04 05:18:46;;;;;;;10.85;3.13;;;;;;;-149.78;100.00;50412.78;4815355;29;20040;-73
2021/10/04 05:21:12;;;;;;;9.07;3.20;;;;;;;-149.78;100.00;50420.59;4828779;29;20042;-73
2021/10/04 05:23:37;;;;;;;7.57;3.15;;;;;;;-149.78;100.00;50440.16;4826220;29;20034;-73
2021/10/04 05:26:03;;;;;;;16.25;3.78;;;;;;;-149.78;100.00;50389.31;4830810;29;20045;-73
2021/10/04 05:28:29;;;;;;;12.85;3.28;;;;;;;-149.78;100.00;50401.03;4832956;29;20054;-73
2021/10/04 05:30:55;;;;;;;10.32;3.60;;;;;;;-149.78;100.00;50432.31;4812748;29;20061;-74
2021/10/04 05:33:21;;;;;;;12.52;4.03;;;;;;;-149.78;100.00;50371.69;4802575;29;20094;-73
2021/10/04 05:35:47;;;;;;;12.77;4.13;;;;;;;-149.78;100.00;50420.59;4830619;29;20129;-73
2021/10/04 05:38:13;;;;;;;8.63;3.90;;;;;;;-149.78;100.00;50416.69;4810834;29;20039;-73
2021/10/04 05:40:39;;;;;;;9.55;4.20;;;;;;;-149.78;100.00;50401.03;4832912;29;20083;-73
2021/10/04 05:43:04;;;;;;;8.23;3.78;;;;;;;-149.78;100.00;50436.25;4833317;29;20034;-73
2021/10/04 05:45:30;;;;;;;11.88;4.43;;;;;;;-149.78;100.00;50383.44;4832709;29;20074;-73
2021/10/04 05:47:56;;;;;;;12.18;4.72;;;;;;;-149.78;100.00;50410.81;4834839;29;20046;-73
2021/10/04 05:50:22;;;;;;;13.05;3.80;;;;;;;-149.78;100.00;50412.78;4800759;29;20054;-73
2021/10/04 05:52:48;;;;;;;13.30;4.43;;;;;;;-149.78;100.00;50401.03;4826578;29;20050;-73
2021/10/04 05:55:13;;;;;;;20.58;7.63;;;;;;;-149.78;100.00;50440.16;4817160;29;20038;-74
2021/10/04 05:57:39;;;;;;;21.85;10.05;;;;;;;-149.78;100.00;50404.94;4833306;29;20030;-73
2021/10/04 06:00:07;;;;;;;27.90;11.10;;;;;;;-149.78;100.00;50426.47;4834056;29;20392;-74
2021/10/04 06:02:33;;;;;;;27.77;10.68;;;;;;;-149.78;100.00;50381.47;4814701;29;20042;-74
2021/10/04 06:04:58;;;;;;;22.15;10.70;;;;;;;-149.78;100.00;50408.84;4819789;29;20069;-73
2021/10/04 06:07:24;;;;;;;19.42;9.57;;;;;;;-149.78;100.00;50381.47;4830248;29;20373;-73
2021/10/04 06:09:51;;;;;;;22.55;8.48;;;;;;;-149.78;100.00;50432.31;4836937;29;20201;-75
2021/10/04 06:12:24;;;;;;;24.08;10.90;;;;;;;-149.78;100.00;50406.91;4832276;29;20086;-73
2021/10/04 06:14:50;;;;;;;23.73;8.50;;;;;;;-149.78;100.00;50408.84;4826770;29;20035;-73
2021/10/04 06:17:15;;;;;;;20.10;7.90;;;;;;;-149.78;100.00;50428.41;4832991;29;20053;-71
2021/10/04 06:19:41;;;;;;;21.88;7.15;;;;;;;-149.78;100.00;50428.41;4819071;29;20042;-73
2021/10/04 06:22:07;;;;;;;17.17;7.63;;;;;;;-149.78;100.00;50451.88;4837120;29;20097;-75
2021/10/04 06:24:33;;;;;;;17.80;7.45;;;;;;;-149.78;100.00;50436.25;4826443;29;20042;-71
2021/10/04 06:26:58;;;;;;;18.75;7.50;;;;;;;-149.78;100.00;50404.94;4830113;29;20038;-73
2021/10/04 06:29:24;;;;;;;18.27;7.15;;;;;;;-149.78;100.00;50406.91;4836033;29;20058;-71
2021/10/04 06:31:50;;;;;;;20.45;6.07;;;;;;;-149.78;100.00;50377.56;4824816;29;20034;-74
2021/10/04 06:34:16;;;;;;;13.52;4.90;;;;;;;-149.78;100.00;50428.41;4802972;29;20045;-71
2021/10/04 06:36:41;;;;;;;15.43;4.70;;;;;;;-149.78;100.00;50416.69;4841553;29;20057;-68
2021/10/04 06:39:07;;;;;;;12.82;4.82;;;;;;;-149.78;100.00;50432.31;4827829;29;20030;-74
2021/10/04 06:41:33;;;;;;;12.98;4.80;;;;;;;-149.78;100.00;50408.84;4841973;29;20037;-74
2021/10/04 06:43:58;;;;;;;9.73;4.35;;;;;;;-149.78;100.00;50436.25;4839820;29;20395;-75
2021/10/04 06:46:25;;;;;;;13.45;4.65;;;;;;;-149.78;100.00;50440.16;4841811;29;20467;-74
2021/10/04 06:48:50;;;;;;;9.95;3.83;;;;;;;-149.78;100.00;50389.31;4845195;29;20040;-74
2021/10/04 06:51:17;;;;;;;6.78;3.85;;;;;;;-149.78;100.00;50397.13;4810390;29;20416;-74
2021/10/04 06:53:43;;;;;;;10.20;3.63;;;;;;;-149.78;100.00;50395.16;4827342;29;20045;-72
2021/10/04 06:56:09;;;;;;;7.47;3.65;;;;;;;-149.78;100.00;50408.84;4832504;29;20463;-70
2021/10/04 06:58:35;;;;;;;7.53;3.22;;;;;;;-149.78;100.00;50363.88;4832784;29;20095;-71
2021/10/04 07:01:01;;;;;;;8.88;3.70;;;;;;;-149.78;100.00;50404.94;4804760;29;21900;-71
2021/10/04 07:03:27;;;;;;;8.40;3.55;;;;;;;-149.78;100.00;50401.03;4838459;29;20132;-76
2021/10/04 07:05:53;;;;;;;13.98;4.13;;;;;;;-149.78;100.00;50381.47;4823146;29;20402;-75
2021/10/04 07:08:19;;;;;;;11.18;3.53;;;;;;;-149.78;100.00;50428.41;4841081;29;20034;-76
2021/10/04 07:10:45;;;;;;;8.73;3.40;;;;;;;-149.78;100.00;50393.22;4794850;29;20042;-76
2021/10/04 07:13:11;;;;;;;6.82;3.03;;;;;;;-149.78;100.00;50354.09;4834683;29;20399;-75
2021/10/04 07:15:37;;;;;;;12.90;3.53;;;;;;;-149.78;100.00;50412.78;4821109;29;20117;-75
2021/10/04 07:18:02;;;;;;;8.98;3.33;;;;;;;-149.78;100.00;50361.91;4831358;29;20572;-75
2021/10/04 07:20:28;;;;;;;11.25;3.22;;;;;;;-149.78;100.00;50365.84;4804595;29;20476;-75
2021/10/04 07:22:58;;;;;;;10.10;2.92;;;;;;;-149.78;100.00;50365.84;4808795;29;20065;-75
2021/10/04 07:25:24;;;;;;;8.23;2.72;;;;;;;-149.78;100.00;50389.31;4818381;29;20448;-75
2021/10/04 07:27:50;;;;;;;12.38;3.03;;;;;;;-149.78;100.00;50387.34;4802728;29;20398;-76
2021/10/04 07:30:16;;;;;;;14.88;3.40;;;;;;;-149.78;100.00;50385.38;4809606;29;20422;-75
2021/10/04 07:32:42;;;;;;;10.13;3.45;;;;;;;-149.78;100.00;50377.56;4832632;29;20038;-75
2021/10/04 07:35:08;;;;;;;11.25;2.45;;;;;;;-149.78;100.00;50369.75;4835531;29;20053;-75
2021/10/04 07:37:34;;;;;;;5.82;2.50;;;;;;;-149.78;100.00;50440.16;4823167;29;20129;-75
2021/10/04 07:40:03;;;;;;;6.05;2.63;;;;;;;-149.78;100.00;50408.84;4825917;29;20544;-75
2021/10/04 07:42:28;;;;;;;9.48;2.50;;;;;;;-149.78;100.00;50412.78;4833089;29;20368;-74
2021/10/04 07:44:54;;;;;;;7.22;3.05;;;;;;;-149.78;100.00;50395.16;4840168;29;20046;-75
2021/10/04 07:47:20;;;;;;;10.88;2.58;;;;;;;-149.78;100.00;50377.56;4824132;29;20100;-74
2021/10/04 07:49:46;;;;;;;7.90;3.00;;;;;;;-149.78;100.00;50418.63;4826365;29;20042;-75
2021/10/04 07:52:12;;;;;;;4.88;2.67;;;;;;;-149.78;100.00;50389.31;4810900;29;20484;-75
2021/10/04 07:54:38;;;;;;;5.32;2.70;;;;;;;-149.78;100.00;50412.78;4842226;29;20144;-75
2021/10/04 07:57:04;;;;;;;5.45;2.42;;;;;;;-149.78;100.00;50367.78;4831482;29;20469;-74
2021/10/04 07:59:29;;;;;;;8.05;2.50;;;;;;;-149.78;100.00;50371.69;4843608;29;20038;-75
2021/10/04 08:01:55;;;;;;;5.38;2.45;;;;;;;-149.78;100.00;50369.75;4813256;29;20074;-75
2021/10/04 08:04:21;;;;;;;5.50;2.70;;;;;;;-149.78;100.00;50358.00;4826197;29;20046;-74
2021/10/04 08:06:46;;;;;;;8.57;2.63;;;;;;;-149.78;100.00;50381.47;4821875;29;20058;-75
2021/10/04 08:09:12;;;;;;;4.28;2.10;;;;;;;-149.78;100.00;50348.22;4831545;29;20042;-75
2021/10/04 08:11:38;;;;;;;10.20;2.67;;;;;;;-149.78;100.00;50385.38;4828483;29;20045;-75
2021/10/04 08:14:04;;;;;;;9.13;2.47;;;;;;;-149.78;100.00;50420.59;4804704;29;20437;-75
2021/10/04 08:16:30;;;;;;;6.32;2.40;;;;;;;-149.78;100.00;50381.47;4804821;29;20053;-76
2021/10/04 08:18:55;;;;;;;7.35;2.30;;;;;;;-149.78;100.00;50361.91;4828860;29;20041;-75
2021/10/04 08:21:23;;;;;;;3.75;2.42;;;;;;;-149.78;100.00;50373.66;4827843;29;20098;-75
2021/10/04 08:23:49;;;;;;;6.20;2.22;;;;;;;-149.78;100.00;50358.00;4836053;29;20042;-75
2021/10/04 08:26:16;;;;;;;6.43;2.55;;;;;;;-149.78;100.00;50346.28;4825747;29;20098;-75
2021/10/04 08:28:42;;;;;;;7.38;2.65;;;;;;;-149.78;100.00;50381.47;4825053;29;20047;-75
2021/10/04 08:31:08;;;;;;;9.40;2.83;;;;;;;-149.78;100.00;50361.91;4810567;29;20049;-76
2021/10/04 08:33:34;;;;;;;5.95;2.90;;;;;;;-149.78;100.00;50381.47;4834452;29;20038;-76
2021/10/04 08:36:01;;;;;;;6.72;3.13;;;;;;;-149.78;100.00;50350.19;4827023;29;20022;-76
2021/10/04 08:38:27;;;;;;;9.93;3.13;;;;;;;-149.78;100.00;50365.84;4827599;29;20443;-75
2021/10/04 08:40:54;;;;;;;8.55;2.92;;;;;;;-149.78;100.00;50361.91;4826957;29;20129;-75
2021/10/04 08:43:21;;;;;;;7.65;2.75;;;;;;;-149.78;100.00;50348.22;4836365;29;20030;-76
2021/10/04 08:45:48;;;;;;;9.32;2.80;;;;;;;-149.78;100.00;50322.81;4840511;29;20042;-76
2021/10/04 08:48:14;;;;;;;5.00;2.72;;;;;;;-149.78;100.00;50342.38;4832055;29;20095;-76
2021/10/04 08:50:41;;;;;;;6.53;3.20;;;;;;;-149.78;100.00;50336.50;4843564;29;20045;-76
2021/10/04 08:53:07;;;;;;;9.27;3.33;;;;;;;-149.78;100.00;50314.97;4791738;29;20454;-75
2021/10/04 08:55:36;;;;;;;7.43;2.10;;;;;;;-149.78;100.00;50350.19;4810822;29;20103;-76
2021/10/04 08:58:08;;;;;;;4.72;2.42;;;;;;;-149.78;100.00;50361.91;4839936;29;20029;-76
2021/10/04 09:00:35;;;;;;;3.35;1.60;;;;;;;-149.78;100.00;50301.28;4830102;29;20041;-76
2021/10/04 09:03:01;;;;;;;6.82;2.15;;;;;;;-149.78;100.00;50342.38;4825425;29;20038;-75
2021/10/04 09:05:28;;;;;;;7.75;2.03;;;;;;;-149.78;100.00;50350.19;4823577;29;20058;-76
2021/10/04 09:07:53;;;;;;;3.50;1.42;;;;;;;-149.78;100.00;50326.72;4810900;29;20087;-76
2021/10/04 09:10:21;;;;;;;5.50;1.27;;;;;;;-149.78;100.00;50314.97;4818359;29;20034;-76
2021/10/04 09:12:50;;;;;;;6.55;1.70;;;;;;;-149.78;100.00;50270.00;4828938;29;20427;-76
2021/10/04 09:15:19;;;;;;;4.60;1.00;;;;;;;-149.78;100.00;50230.88;4841947;29;20041;-76
2021/10/04 09:17:45;;;;;;;5.55;1.25;;;;;;;-149.78;100.00;50213.28;4834287;29;20085;-76
2021/10/04 09:20:10;;;;;;;5.10;0.93;;;;;;;-149.78;100.00;50234.81;4798260;29;20370;-76
2021/10/04 09:22:38;;;;;;;3.47;1.10;;;;;;;-149.78;86.80;50232.84;4812006;29;20676;-76
2021/10/04 09:25:06;;;;;;;3.22;0.88;;;;;;;-149.78;79.21;50209.38;4847907;29;20129;-76
2021/10/04 09:27:46;;;;;;;3.25;0.88;;;;;;;-149.78;74.89;50213.28;4830577;29;20383;-76
2021/10/04 09:30:23;;;;;;;1.73;0.80;;;;;;;-149.78;73.53;50232.84;4824269;29;20103;-76
2021/10/04 09:32:52;;;;;;;3.08;1.00;;;;;;;-149.78;74.11;50213.28;4833746;29;20129;-75
2021/10/04 09:35:24;;;;;;;2.72;0.85;;;;;;;-149.78;67.59;50189.81;4842420;29;20029;-75
2021/10/04 09:37:54;;;;;;;4.53;0.95;;;;;;;-149.78;60.55;50138.97;4843610;29;20034;-77
2021/10/04 09:40:46;;;;;;;5.10;0.70;;;;;;;-149.78;55.07;50111.59;4839778;29;20038;-75
2021/10/04 09:43:23;;;;;;;2.25;0.88;;;;;;;-149.78;54.67;50127.25;4825171;29;20026;-75
2021/10/04 09:46:08;;;;;;;4.05;0.88;;;;;;;-149.78;54.01;50105.72;4830199;29;20034;-76
2021/10/04 09:48:34;;;;;;;4.45;0.73;;;;;;;-149.78;53.55;50095.94;4837986;29;20034;-76
2021/10/04 09:51:14;;;;;;;3.33;0.80;;;;;;;-149.78;52.06;50127.25;4829058;29;20038;-74
2021/10/04 09:53:40;;;;;;;1.35;0.70;;;;;;;-149.78;51.87;50148.75;4821312;29;20127;-75
2021/10/04 09:56:05;;;;;;;3.03;1.08;;;;;;;-149.78;54.04;50138.97;4833106;29;20385;-76
2021/10/04 09:58:32;;;;;;;1.92;0.90;;;;;;;-149.78;56.25;50164.41;4822167;29;20045;-76
2021/10/04 10:01:01;;;;;;;2.15;0.90;;;;;;;-149.78;54.51;50123.34;4825931;29;20084;-76
2021/10/04 10:03:42;;;;;;;1.73;0.80;;;;;;;-149.78;55.29;50117.47;4810023;29;20436;-75
2021/10/04 10:06:08;;;;;;;5.65;0.90;;;;;;;-149.78;54.70;50137.03;4823936;29;20033;-75
2021/10/04 10:08:34;;;;;;;3.60;1.13;;;;;;;-149.78;55.21;50123.34;4844808;29;20029;-75
2021/10/04 10:11:04;;;;;;;2.50;1.17;;;;;;;-149.78;57.25;50154.63;4826323;29;20423;-74
2021/10/04 10:13:31;;;;;;;2.45;0.80;;;;;;;-149.78;57.24;50150.72;4839289;29;20034;-75
2021/10/04 10:16:20;;;;;;;1.75;1.00;;;;;;;-149.78;56.85;50162.44;4821878;29;20042;-74
2021/10/04 10:18:53;;;;;;;2.70;1.00;;;;;;;-149.78;55.83;50154.63;4841764;29;20113;-77
2021/10/04 10:21:22;;;;;;;2.47;1.05;;;;;;;-149.78;55.07;50121.38;4835260;29;20052;-74
2021/10/04 10:24:01;;;;;;;2.75;0.85;;;;;;;-149.78;55.09;50138.97;4834417;29;20387;-73
2021/10/04 10:26:35;;;;;;;2.88;1.20;;;;;;;-149.78;57.74;50178.09;4838524;29;20124;-76
2021/10/04 10:29:13;;;;;;;1.83;0.80;;;;;;;-149.78;58.90;50183.97;4839394;29;20054;-73
2021/10/04 10:31:48;;;;;;;1.05;0.88;;;;;;;-149.78;58.25;50182.00;4832299;29;20113;-74
2021/10/04 10:34:29;;;;;;;2.42;0.73;;;;;;;-149.78;57.19;50162.44;4836978;29;20144;-74
2021/10/04 10:37:12;;;;;;;3.25;1.10;;;;;;;-149.78;61.07;50185.91;4844772;29;20122;-74
2021/10/04 10:39:41;;;;;;;4.13;1.50;;;;;;;-149.78;62.16;50185.91;4841021;29;20026;-74
2021/10/04 10:42:34;;;;;;;2.00;1.08;;;;;;;-149.78;59.84;50182.00;4838734;29;20475;-74
2021/10/04 10:45:00;;;;;;;3.85;0.82;;;;;;;-149.78;59.06;50182.00;4838831;29;20064;-73
2021/10/04 10:47:35;;;;;;;2.03;0.70;;;;;;;-149.78;60.78;50174.19;4839946;29;20490;-74
2021/10/04 10:50:13;;;;;;;1.65;0.70;;;;;;;-149.78;58.52;50178.09;4825734;29;20034;-73
2021/10/04 10:52:46;;;;;;;1.83;0.80;;;;;;;-149.78;57.66;50160.50;4823652;29;20053;-74
2021/10/04 10:55:20;;;;;;;1.45;0.77;;;;;;;-149.78;59.52;50211.34;4836445;29;20038;-74
2021/10/04 10:57:52;;;;;;;3.15;0.90;;;;;;;-149.78;63.14;50185.91;4815880;29;20042;-74
2021/10/04 11:00:20;;;;;;;3.70;0.90;;;;;;;-149.78;66.28;50225.03;4822942;29;20038;-73
2021/10/04 11:02:59;;;;;;;3.20;0.90;;;;;;;-149.78;62.81;50197.66;4841466;29;20059;-74
2021/10/04 11:05:39;;;;;;;1.35;0.65;;;;;;;-149.78;63.31;50228.94;4836714;29;20120;-73
2021/10/04 11:08:19;;;;;;;4.10;0.98;;;;;;;-149.78;66.07;50221.13;4832759;29;20026;-75